sensor_id;sensor_type;location;lat;lon;timestamp;pressure;altitude;pressure_sealevel;temperature;humidity
39309;BME280;26019;47.510;19.122;2022-11-04T00:07:11;100041.59;;;9.63;100.00
39309;BME280;26019;47.510;19.122;2022-11-04T00:17:31;100041.59;;;9.66;100.00
39309;BME280;26019;47.510;19.122;2022-11-04T00:27:35;100007.31;;;9.52;100.00
39309;BME280;26019;47.510;19.122;2022-11-04T00:37:56;99996.94;;;9.58;100.00
39309;BME280;26019;47.510;19.122;2022-11-04T00:47:58;99986.63;;;9.58;100.00
39309;BME280;26019;47.510;19.122;2022-11-04T00:58:00;99953.97;;;9.54;100.00
39309;BME280;26019;47.510;19.122;2022-11-04T01:08:02;99946.22;;;9.57;100.00
39309;BME280;26019;47.510;19.122;2022-11-04T01:18:04;99973.56;;;9.77;100.00
39309;BME280;26019;47.510;19.122;2022-11-04T01:28:06;99952.97;;;9.72;100.00
39309;BME280;26019;47.510;19.122;2022-11-04T01:38:09;99936.63;;;9.71;100.00
39309;BME280;26019;47.510;19.122;2022-11-04T01:48:16;99922.78;;;9.82;100.00
39309;BME280;26019;47.510;19.122;2022-11-04T01:58:25;99894.47;;;9.74;100.00
39309;BME280;26019;47.510;19.122;2022-11-04T02:08:30;99874.72;;;9.68;100.00
39309;BME280;26019;47.510;19.122;2022-11-04T02:39:15;99838.59;;;9.68;100.00
39309;BME280;26019;47.510;19.122;2022-11-04T03:10:02;99825.00;;;9.54;100.00
39309;BME280;26019;47.510;19.122;2022-11-04T03:20:08;99825.03;;;9.49;100.00
39309;BME280;26019;47.510;19.122;2022-11-04T03:30:17;99789.88;;;9.40;100.00
39309;BME280;26019;47.510;19.122;2022-11-04T03:40:20;99761.59;;;9.31;100.00
39309;BME280;26019;47.510;19.122;2022-11-04T03:50:27;99767.44;;;9.47;100.00
39309;BME280;26019;47.510;19.122;2022-11-04T04:00:34;99751.25;;;9.34;100.00
39309;BME280;26019;47.510;19.122;2022-11-04T04:10:57;99743.63;;;9.25;100.00
39309;BME280;26019;47.510;19.122;2022-11-04T04:21:07;99711.06;;;9.13;100.00
39309;BME280;26019;47.510;19.122;2022-11-04T04:31:10;99705.00;;;9.19;100.00
39309;BME280;26019;47.510;19.122;2022-11-04T04:41:35;99723.09;;;9.13;100.00
39309;BME280;26019;47.510;19.122;2022-11-04T04:51:56;99705.16;;;9.00;100.00
39309;BME280;26019;47.510;19.122;2022-11-04T05:01:58;99696.59;;;8.98;100.00
39309;BME280;26019;47.510;19.122;2022-11-04T05:12:00;99700.88;;;8.99;100.00
39309;BME280;26019;47.510;19.122;2022-11-04T05:22:03;99714.56;;;9.04;100.00
39309;BME280;26019;47.510;19.122;2022-11-04T05:32:04;99714.63;;;9.00;100.00
39309;BME280;26019;47.510;19.122;2022-11-04T05:42:10;99722.34;;;9.01;100.00
39309;BME280;26019;47.510;19.122;2022-11-04T05:52:12;99700.13;;;8.88;100.00
39309;BME280;26019;47.510;19.122;2022-11-04T06:02:17;99705.38;;;8.78;100.00
39309;BME280;26019;47.510;19.122;2022-11-04T06:12:21;99725.09;;;8.79;100.00
39309;BME280;26019;47.510;19.122;2022-11-04T06:22:23;99737.06;;;8.85;100.00
39309;BME280;26019;47.510;19.122;2022-11-04T06:32:25;99725.00;;;8.90;100.00
39309;BME280;26019;47.510;19.122;2022-11-04T06:42:27;99734.50;;;8.85;100.00
39309;BME280;26019;47.510;19.122;2022-11-04T06:52:36;99737.97;;;8.82;100.00
39309;BME280;26019;47.510;19.122;2022-11-04T07:02:47;99715.56;;;8.94;100.00
39309;BME280;26019;47.510;19.122;2022-11-04T07:12:49;99719.72;;;9.09;100.00
39309;BME280;26019;47.510;19.122;2022-11-04T07:22:53;99733.31;;;9.25;100.00
39309;BME280;26019;47.510;19.122;2022-11-04T07:32:55;99732.38;;;9.29;100.00
39309;BME280;26019;47.510;19.122;2022-11-04T07:42:59;99724.63;;;9.29;100.00
39309;BME280;26019;47.510;19.122;2022-11-04T07:53:01;99709.94;;;9.37;100.00
39309;BME280;26019;47.510;19.122;2022-11-04T08:03:03;99692.94;;;9.21;100.00
39309;BME280;26019;47.510;19.122;2022-11-04T08:13:05;99686.13;;;9.17;100.00
39309;BME280;26019;47.510;19.122;2022-11-04T08:23:08;99670.63;;;9.20;100.00
39309;BME280;26019;47.510;19.122;2022-11-04T08:33:14;99689.56;;;9.16;100.00
39309;BME280;26019;47.510;19.122;2022-11-04T08:43:15;99674.16;;;9.09;100.00
39309;BME280;26019;47.510;19.122;2022-11-04T08:53:17;99657.72;;;9.18;100.00
39309;BME280;26019;47.510;19.122;2022-11-04T09:03:19;99655.94;;;9.26;100.00
39309;BME280;26019;47.510;19.122;2022-11-04T09:13:23;99640.31;;;9.37;100.00
39309;BME280;26019;47.510;19.122;2022-11-04T09:23:29;99634.09;;;9.57;100.00
39309;BME280;26019;47.510;19.122;2022-11-04T09:33:31;99625.50;;;9.53;100.00
39309;BME280;26019;47.510;19.122;2022-11-04T09:54:40;99599.19;;;9.26;100.00
39309;BME280;26019;47.510;19.122;2022-11-04T10:25:41;99557.81;;;9.37;100.00
39309;BME280;26019;47.510;19.122;2022-11-04T10:35:53;99563.56;;;9.58;100.00
39309;BME280;26019;47.510;19.122;2022-11-04T10:46:20;99547.53;;;9.36;100.00
39309;BME280;26019;47.510;19.122;2022-11-04T11:06:37;99512.94;;;10.57;100.00
39309;BME280;26019;47.510;19.122;2022-11-04T11:16:41;99493.69;;;10.72;100.00
39309;BME280;26019;47.510;19.122;2022-11-04T11:26:49;99496.91;;;10.84;100.00
39309;BME280;26019;47.510;19.122;2022-11-04T11:36:56;99496.47;;;10.61;100.00
39309;BME280;26019;47.510;19.122;2022-11-04T11:47:01;99477.75;;;10.50;100.00
39309;BME280;26019;47.510;19.122;2022-11-04T11:57:16;99479.22;;;10.64;100.00
39309;BME280;26019;47.510;19.122;2022-11-04T12:07:34;99448.78;;;10.76;100.00
39309;BME280;26019;47.510;19.122;2022-11-04T12:18:21;99438.91;;;10.96;100.00
39309;BME280;26019;47.510;19.122;2022-11-04T12:39:29;99379.34;;;11.38;100.00
39309;BME280;26019;47.510;19.122;2022-11-04T13:00:08;99369.56;;;12.19;100.00
39309;BME280;26019;47.510;19.122;2022-11-04T13:10:26;99356.75;;;11.79;100.00
39309;BME280;26019;47.510;19.122;2022-11-04T13:20:47;99359.19;;;11.86;100.00
39309;BME280;26019;47.510;19.122;2022-11-04T13:31:04;99353.94;;;11.89;100.00
39309;BME280;26019;47.510;19.122;2022-11-04T14:12:27;99318.50;;;11.23;100.00
39309;BME280;26019;47.510;19.122;2022-11-04T14:32:39;99302.72;;;10.98;100.00
39309;BME280;26019;47.510;19.122;2022-11-04T14:42:49;99296.94;;;10.88;100.00
39309;BME280;26019;47.510;19.122;2022-11-04T14:52:58;99290.38;;;10.74;100.00
39309;BME280;26019;47.510;19.122;2022-11-04T15:13:47;99279.44;;;10.61;100.00
39309;BME280;26019;47.510;19.122;2022-11-04T15:23:54;99275.47;;;10.48;100.00
39309;BME280;26019;47.510;19.122;2022-11-04T15:34:00;99281.44;;;10.50;100.00
39309;BME280;26019;47.510;19.122;2022-11-04T15:44:02;99250.81;;;10.31;100.00
39309;BME280;26019;47.510;19.122;2022-11-04T15:54:28;99275.53;;;10.45;100.00
39309;BME280;26019;47.510;19.122;2022-11-04T16:04:34;99282.31;;;10.49;100.00
39309;BME280;26019;47.510;19.122;2022-11-04T16:14:36;99290.25;;;10.40;100.00
39309;BME280;26019;47.510;19.122;2022-11-04T16:24:39;99290.28;;;10.37;100.00
39309;BME280;26019;47.510;19.122;2022-11-04T16:34:48;99293.97;;;10.26;100.00
39309;BME280;26019;47.510;19.122;2022-11-04T16:44:59;99269.91;;;10.24;100.00
39309;BME280;26019;47.510;19.122;2022-11-04T16:55:04;99281.84;;;10.30;100.00
39309;BME280;26019;47.510;19.122;2022-11-04T17:05:06;99272.34;;;10.30;100.00
39309;BME280;26019;47.510;19.122;2022-11-04T17:15:10;99243.44;;;10.14;100.00
39309;BME280;26019;47.510;19.122;2022-11-04T17:25:21;99264.59;;;10.30;100.00
39309;BME280;26019;47.510;19.122;2022-11-04T17:35:24;99261.06;;;10.35;100.00
39309;BME280;26019;47.510;19.122;2022-11-04T17:45:29;99260.97;;;10.41;100.00
39309;BME280;26019;47.510;19.122;2022-11-04T17:55:42;99273.78;;;10.45;100.00
39309;BME280;26019;47.510;19.122;2022-11-04T18:06:00;99265.34;;;10.36;100.00
39309;BME280;26019;47.510;19.122;2022-11-04T18:16:10;99257.16;;;10.16;100.00
39309;BME280;26019;47.510;19.122;2022-11-04T18:26:13;99245.94;;;10.19;100.00
39309;BME280;26019;47.510;19.122;2022-11-04T18:36:15;99252.78;;;10.20;100.00
39309;BME280;26019;47.510;19.122;2022-11-04T18:46:17;99271.00;;;10.14;100.00
39309;BME280;26019;47.510;19.122;2022-11-04T18:56:21;99314.63;;;10.26;100.00
39309;BME280;26019;47.510;19.122;2022-11-04T19:06:28;99341.50;;;10.16;100.00
39309;BME280;26019;47.510;19.122;2022-11-04T19:16:39;99312.06;;;10.26;100.00
39309;BME280;26019;47.510;19.122;2022-11-04T19:26:42;99319.91;;;10.20;100.00
39309;BME280;26019;47.510;19.122;2022-11-04T19:36:44;99322.44;;;10.23;100.00
39309;BME280;26019;47.510;19.122;2022-11-04T19:46:47;99317.28;;;10.22;100.00
39309;BME280;26019;47.510;19.122;2022-11-04T19:56:51;99321.56;;;10.24;100.00
39309;BME280;26019;47.510;19.122;2022-11-04T20:06:56;99314.81;;;10.17;100.00
39309;BME280;26019;47.510;19.122;2022-11-04T20:16:58;99306.97;;;10.22;100.00
39309;BME280;26019;47.510;19.122;2022-11-04T20:27:00;99320.81;;;10.19;100.00
39309;BME280;26019;47.510;19.122;2022-11-04T20:37:02;99324.81;;;10.32;100.00
39309;BME280;26019;47.510;19.122;2022-11-04T20:47:05;99319.81;;;10.26;100.00
39309;BME280;26019;47.510;19.122;2022-11-04T20:57:07;99327.44;;;10.29;100.00
39309;BME280;26019;47.510;19.122;2022-11-04T21:07:08;99324.00;;;10.30;100.00
39309;BME280;26019;47.510;19.122;2022-11-04T21:17:12;99330.19;;;10.23;100.00
39309;BME280;26019;47.510;19.122;2022-11-04T21:27:13;99353.28;;;10.29;100.00
39309;BME280;26019;47.510;19.122;2022-11-04T21:37:24;99346.63;;;10.18;100.00
39309;BME280;26019;47.510;19.122;2022-11-04T21:47:26;99376.59;;;10.26;100.00
39309;BME280;26019;47.510;19.122;2022-11-04T21:57:29;99370.47;;;10.32;100.00
39309;BME280;26019;47.510;19.122;2022-11-04T22:07:31;99381.47;;;10.42;100.00
39309;BME280;26019;47.510;19.122;2022-11-04T22:17:51;99369.53;;;10.35;100.00
39309;BME280;26019;47.510;19.122;2022-11-04T22:27:54;99361.22;;;10.20;100.00
39309;BME280;26019;47.510;19.122;2022-11-04T22:37:58;99368.38;;;10.06;100.00
39309;BME280;26019;47.510;19.122;2022-11-04T22:48:02;99380.03;;;9.80;100.00
39309;BME280;26019;47.510;19.122;2022-11-04T22:58:12;99383.84;;;9.59;100.00
39309;BME280;26019;47.510;19.122;2022-11-04T23:08:23;99378.88;;;9.48;100.00
39309;BME280;26019;47.510;19.122;2022-11-04T23:18:35;99383.19;;;9.46;100.00
39309;BME280;26019;47.510;19.122;2022-11-04T23:28:45;99383.38;;;9.33;100.00
39309;BME280;26019;47.510;19.122;2022-11-04T23:39:06;99389.41;;;9.34;100.00
39309;BME280;26019;47.510;19.122;2022-11-04T23:49:09;99407.50;;;9.29;100.00
39309;BME280;26019;47.510;19.122;2022-11-04T23:59:37;99399.09;;;9.16;100.00
